Time;durP1;ratioP1;P1;durP2;ratioP2;P2;SDS_P1;SDS_P2;PMS_P1;PMS_P2;Temp;Humidity;BMP_temperature;BMP_pressure;BME280_temperature;BME280_humidity;BME280_pressure;Samples;Min_cycle;Max_cycle;Signal;HPM_P1;HPM_P2
2021/03/06 00:01:16;;;;;;;0.85;0.40;;;21.70;36.80;;;;;;5057744;28;20033;-82
2021/03/06 00:03:41;;;;;;;1.45;0.57;;;21.70;36.80;;;;;;5052179;28;20025;-85
2021/03/06 00:06:07;;;;;;;1.02;0.50;;;21.70;36.80;;;;;;5064669;28;20033;-85
2021/03/06 00:08:32;;;;;;;1.10;0.38;;;21.60;36.80;;;;;;5045751;28;20603;-84
2021/03/06 00:10:58;;;;;;;0.70;0.20;;;21.60;36.80;;;;;;5056054;28;20033;-84
2021/03/06 00:13:24;;;;;;;0.82;0.40;;;21.60;36.70;;;;;;5056015;28;20035;-84
2021/03/06 00:15:50;;;;;;;1.05;0.47;;;21.60;36.80;;;;;;5055279;28;20025;-84
2021/03/06 00:18:16;;;;;;;0.80;0.30;;;21.60;36.80;;;;;;5055156;28;20082;-84
2021/03/06 00:20:42;;;;;;;0.60;0.35;;;21.60;36.80;;;;;;5061161;28;20431;-85
2021/03/06 00:23:07;;;;;;;1.00;0.30;;;21.50;36.70;;;;;;5057145;28;20031;-84
2021/03/06 00:25:33;;;;;;;0.93;0.30;;;21.50;36.70;;;;;;5037195;28;20035;-84
2021/03/06 00:27:59;;;;;;;1.00;0.30;;;21.50;36.70;;;;;;5061958;28;20072;-86
2021/03/06 00:30:25;;;;;;;1.02;0.22;;;21.50;36.60;;;;;;5050762;28;20045;-84
2021/03/06 00:32:50;;;;;;;0.90;0.30;;;21.50;36.60;;;;;;5052106;28;20017;-84
2021/03/06 00:35:16;;;;;;;2.53;0.25;;;21.50;36.60;;;;;;5049504;28;20133;-84
2021/03/06 00:37:42;;;;;;;1.17;0.40;;;21.40;36.60;;;;;;5049781;28;20066;-85
2021/03/06 00:40:10;;;;;;;0.85;0.30;;;21.40;36.60;;;;;;5035152;28;20025;-84
2021/03/06 00:42:36;;;;;;;1.08;0.30;;;21.40;36.60;;;;;;5059821;28;20033;-84
2021/03/06 00:45:03;;;;;;;0.93;0.43;;;21.40;36.60;;;;;;5057543;28;20017;-84
2021/03/06 00:47:28;;;;;;;0.75;0.30;;;21.40;36.70;;;;;;5060522;28;20040;-84
2021/03/06 00:49:54;;;;;;;0.60;0.30;;;21.40;36.60;;;;;;5043458;28;20032;-84
2021/03/06 00:52:20;;;;;;;1.02;0.32;;;21.40;36.60;;;;;;5057596;28;20025;-84
2021/03/06 00:54:45;;;;;;;0.70;0.40;;;21.40;36.60;;;;;;5059945;28;20028;-84
2021/03/06 00:57:11;;;;;;;0.68;0.30;;;21.30;36.60;;;;;;5058966;28;20505;-84
2021/03/06 00:59:36;;;;;;;1.27;0.30;;;21.30;36.60;;;;;;5044417;28;20271;-84
2021/03/06 01:02:02;;;;;;;1.40;0.20;;;21.30;36.60;;;;;;5057431;28;20041;-83
2021/03/06 01:04:28;;;;;;;1.23;0.22;;;21.30;36.60;;;;;;5057535;28;20036;-83
2021/03/06 01:06:53;;;;;;;0.90;0.45;;;21.30;36.60;;;;;;5045714;28;20029;-84
2021/03/06 01:09:19;;;;;;;0.80;0.30;;;21.30;36.60;;;;;;5056790;28;20467;-84
2021/03/06 01:11:44;;;;;;;0.70;0.30;;;21.30;36.60;;;;;;5058704;28;20021;-84
2021/03/06 01:14:11;;;;;;;0.82;0.20;;;21.20;36.60;;;;;;5057214;28;20028;-84
2021/03/06 01:16:36;;;;;;;1.27;0.40;;;21.20;36.60;;;;;;5059409;28;20045;-83
2021/03/06 01:19:02;;;;;;;0.93;0.35;;;21.20;36.60;;;;;;5043645;28;20045;-84
2021/03/06 01:21:28;;;;;;;1.00;0.40;;;21.20;36.60;;;;;;5060130;28;20033;-84
2021/03/06 01:23:53;;;;;;;1.00;0.40;;;21.20;36.60;;;;;;5058668;28;20484;-84
2021/03/06 01:26:19;;;;;;;1.00;0.30;;;21.20;36.60;;;;;;5061250;28;20028;-83
2021/03/06 01:28:44;;;;;;;1.73;0.45;;;21.20;36.60;;;;;;5061156;28;20527;-84
2021/03/06 01:31:10;;;;;;;0.93;0.38;;;21.20;36.50;;;;;;5060659;28;20052;-84
2021/03/06 01:33:36;;;;;;;0.85;0.40;;;21.10;36.50;;;;;;5062389;28;20028;-85
2021/03/06 01:36:01;;;;;;;0.70;0.32;;;21.10;36.50;;;;;;5062035;28;20488;-84
2021/03/06 01:38:27;;;;;;;1.42;0.30;;;21.10;36.50;;;;;;5059748;28;20036;-84
2021/03/06 01:40:53;;;;;;;1.67;0.20;;;21.10;36.50;;;;;;5041020;28;20052;-85
2021/03/06 01:43:19;;;;;;;0.82;0.30;;;21.10;36.50;;;;;;5040297;28;20108;-84
2021/03/06 01:45:44;;;;;;;1.20;0.52;;;21.10;36.50;;;;;;5059353;28;20500;-83
2021/03/06 01:48:10;;;;;;;2.17;0.40;;;21.10;36.50;;;;;;5060571;28;20029;-85
2021/03/06 01:50:39;;;;;;;1.55;0.55;;;21.10;36.60;;;;;;5059459;28;20611;-85
2021/03/06 01:53:08;;;;;;;0.75;0.40;;;21.10;36.60;;;;;;5062106;28;20045;-84
2021/03/06 01:55:38;;;;;;;1.80;0.30;;;21.00;36.50;;;;;;5058564;28;20091;-82
2021/03/06 01:58:05;;;;;;;0.93;0.43;;;21.00;36.60;;;;;;5059604;28;20043;-84
2021/03/06 02:00:32;;;;;;;1.17;0.47;;;21.00;36.50;;;;;;5055097;28;20547;-82
2021/03/06 02:02:59;;;;;;;0.93;0.38;;;21.00;36.50;;;;;;5059757;28;20212;-83
2021/03/06 02:05:25;;;;;;;0.55;0.25;;;21.00;36.60;;;;;;5060425;28;20036;-84
2021/03/06 02:07:51;;;;;;;1.63;0.40;;;21.00;36.50;;;;;;5068333;28;20033;-85
2021/03/06 02:10:18;;;;;;;1.10;0.45;;;21.00;36.60;;;;;;5063009;28;20028;-84
2021/03/06 02:12:50;;;;;;;0.82;0.32;;;20.90;36.50;;;;;;5060355;28;20037;-83
2021/03/06 02:15:21;;;;;;;1.02;0.30;;;21.00;36.50;;;;;;5063843;28;20024;-82
2021/03/06 02:17:58;;;;;;;1.08;0.30;;;20.90;36.50;;;;;;5056434;28;20119;-84
2021/03/06 02:21:01;;;;;;;0.70;0.30;;;20.90;36.50;;;;;;5058784;28;20021;-84
2021/03/06 02:23:57;;;;;;;0.60;0.30;;;20.90;36.50;;;;;;5058069;28;20059;-84
2021/03/06 02:26:53;;;;;;;0.60;0.28;;;20.90;36.50;;;;;;5056636;28;20029;-84
2021/03/06 02:29:27;;;;;;;1.02;0.43;;;20.90;36.50;;;;;;5057562;28;20028;-84
2021/03/06 02:31:55;;;;;;;0.93;0.52;;;20.90;36.50;;;;;;5037602;28;20088;-84
2021/03/06 02:34:28;;;;;;;0.80;0.30;;;20.80;36.40;;;;;;5038960;28;20026;-84
2021/03/06 02:36:57;;;;;;;0.75;0.35;;;20.80;36.40;;;;;;5055303;28;20090;-84
2021/03/06 02:39:26;;;;;;;1.60;0.43;;;20.80;36.50;;;;;;5043105;28;20029;-82
2021/03/06 02:41:54;;;;;;;0.60;0.20;;;20.80;36.50;;;;;;5062289;28;20083;-82
2021/03/06 02:44:22;;;;;;;0.68;0.30;;;20.80;36.50;;;;;;5057699;28;20032;-83
2021/03/06 02:46:48;;;;;;;0.88;0.30;;;20.80;36.50;;;;;;5060403;28;20025;-83
2021/03/06 02:49:14;;;;;;;1.45;0.50;;;20.80;36.50;;;;;;5059934;28;20098;-83
2021/03/06 02:51:41;;;;;;;0.93;0.32;;;20.80;36.50;;;;;;5058582;28;20028;-82
2021/03/06 02:54:07;;;;;;;1.00;0.20;;;20.80;36.40;;;;;;5059760;28;20025;-83
2021/03/06 02:56:35;;;;;;;1.00;0.30;;;20.70;36.40;;;;;;5057932;28;20037;-83
2021/03/06 02:59:19;;;;;;;0.93;0.30;;;20.70;36.40;;;;;;5041921;28;20053;-83
2021/03/06 03:02:13;;;;;;;0.70;0.30;;;20.70;36.40;;;;;;5054090;28;20055;-83
2021/03/06 03:04:57;;;;;;;2.35;0.40;;;20.70;36.40;;;;;;5058006;28;20063;-84
2021/03/06 03:07:48;;;;;;;0.80;0.30;;;20.70;36.50;;;;;;5052563;28;20420;-81
2021/03/06 03:10:15;;;;;;;0.80;0.40;;;20.70;36.40;;;;;;5053263;28;20064;-84
2021/03/06 03:13:14;;;;;;;0.80;0.22;;;20.70;36.40;;;;;;5051239;28;20055;-83
2021/03/06 03:15:51;;;;;;;1.35;0.40;;;20.60;36.40;;;;;;5053874;28;20123;-83
2021/03/06 03:18:22;;;;;;;0.60;0.20;;;20.70;36.40;;;;;;5039260;28;20017;-84
2021/03/06 03:20:54;;;;;;;0.88;0.30;;;20.60;36.30;;;;;;5055633;28;20031;-84
2021/03/06 03:23:30;;;;;;;0.75;0.30;;;20.60;36.40;;;;;;5055729;28;20439;-82
2021/03/06 03:25:58;;;;;;;1.08;0.20;;;20.60;36.30;;;;;;5055700;28;20107;-84
2021/03/06 03:28:28;;;;;;;0.73;0.30;;;20.60;36.40;;;;;;5057038;28;20040;-83
2021/03/06 03:30:58;;;;;;;1.13;0.25;;;20.60;36.30;;;;;;5060090;28;20021;-84
2021/03/06 03:33:25;;;;;;;0.70;0.20;;;20.60;36.30;;;;;;5058456;28;20029;-84
2021/03/06 03:35:51;;;;;;;0.90;0.30;;;20.60;36.30;;;;;;5042161;28;20016;-85
2021/03/06 03:38:17;;;;;;;0.88;0.30;;;20.60;36.30;;;;;;5041803;28;20131;-84
2021/03/06 03:40:45;;;;;;;1.05;0.35;;;20.60;36.30;;;;;;5054563;28;20036;-83
2021/03/06 03:43:12;;;;;;;1.00;0.30;;;20.60;36.30;;;;;;5045510;28;20029;-86
2021/03/06 03:45:38;;;;;;;0.98;0.30;;;20.60;36.90;;;;;;5058565;28;20063;-84
2021/03/06 03:48:05;;;;;;;0.80;0.30;;;20.50;36.30;;;;;;5063720;28;20036;-85
2021/03/06 03:50:30;;;;;;;0.55;0.22;;;20.60;36.30;;;;;;5057087;28;20020;-85
2021/03/06 03:52:57;;;;;;;1.67;0.20;;;20.50;36.30;;;;;;5045024;28;20029;-85
2021/03/06 03:55:24;;;;;;;1.15;0.40;;;20.50;36.30;;;;;;5044397;28;20480;-85
2021/03/06 03:57:50;;;;;;;1.02;0.30;;;20.50;36.30;;;;;;5041898;28;20051;-85
2021/03/06 04:00:18;;;;;;;0.68;0.20;;;20.50;36.30;;;;;;5040972;28;20084;-83
2021/03/06 04:02:44;;;;;;;0.93;0.20;;;20.50;36.30;;;;;;5042052;28;20028;-85
2021/03/06 04:05:10;;;;;;;1.40;0.40;;;20.50;36.30;;;;;;5046488;28;20362;-83
2021/03/06 04:07:47;;;;;;;0.80;0.30;;;20.50;36.30;;;;;;5045975;28;20032;-84
2021/03/06 04:10:15;;;;;;;1.80;0.38;;;20.50;36.30;;;;;;5060419;28;20123;-85
2021/03/06 04:12:42;;;;;;;0.98;0.20;;;20.50;36.30;;;;;;5059223;28;20207;-85
2021/03/06 04:15:09;;;;;;;1.17;0.30;;;20.40;36.20;;;;;;5061557;28;20024;-84
2021/03/06 04:17:35;;;;;;;1.40;0.38;;;20.50;36.30;;;;;;5060263;28;20029;-84
2021/03/06 04:20:02;;;;;;;1.33;0.30;;;20.40;36.20;;;;;;5061180;28;20631;-85
2021/03/06 04:22:28;;;;;;;1.10;0.20;;;20.40;36.20;;;;;;5058646;28;20047;-84
2021/03/06 04:24:53;;;;;;;0.45;0.17;;;20.40;36.20;;;;;;5060113;28;20036;-85
2021/03/06 04:27:19;;;;;;;0.98;0.30;;;20.40;36.20;;;;;;5058700;28;20064;-84
2021/03/06 04:29:45;;;;;;;1.13;0.20;;;20.40;36.30;;;;;;5044747;28;20029;-84
2021/03/06 04:32:10;;;;;;;0.70;0.30;;;20.40;36.20;;;;;;5056803;28;20067;-82
2021/03/06 04:34:36;;;;;;;0.60;0.25;;;20.40;36.20;;;;;;5045327;28;20029;-84
2021/03/06 04:37:01;;;;;;;0.57;0.20;;;20.40;36.20;;;;;;5061455;28;20477;-83
2021/03/06 04:39:27;;;;;;;0.70;0.20;;;20.40;36.20;;;;;;5065800;28;20037;-82
2021/03/06 04:41:53;;;;;;;0.45;0.20;;;20.40;36.20;;;;;;5069065;28;20028;-83
2021/03/06 04:44:18;;;;;;;0.55;0.15;;;20.40;36.20;;;;;;5045529;28;20032;-85
2021/03/06 04:46:44;;;;;;;0.50;0.20;;;20.40;36.30;;;;;;5058960;28;20090;-84
2021/03/06 04:49:09;;;;;;;0.77;0.20;;;20.30;36.20;;;;;;5061814;28;20040;-82
2021/03/06 04:51:35;;;;;;;0.60;0.20;;;20.30;36.20;;;;;;5057148;28;20048;-84
2021/03/06 04:54:01;;;;;;;0.55;0.20;;;20.40;36.20;;;;;;5062158;28;20028;-85
2021/03/06 04:56:27;;;;;;;0.50;0.20;;;20.30;36.20;;;;;;5062365;28;20025;-85
2021/03/06 04:58:52;;;;;;;0.80;0.32;;;20.30;36.20;;;;;;5060069;28;20503;-84
2021/03/06 05:01:18;;;;;;;0.82;0.20;;;20.30;36.20;;;;;;5045060;28;20068;-83
2021/03/06 05:03:44;;;;;;;0.80;0.20;;;20.30;36.20;;;;;;5046092;28;20288;-85
2021/03/06 05:06:11;;;;;;;0.43;0.20;;;20.30;36.20;;;;;;5061675;28;20101;-85
2021/03/06 05:08:39;;;;;;;1.70;0.30;;;20.30;36.20;;;;;;5062212;28;20032;-84
2021/03/06 05:11:05;;;;;;;0.80;0.13;;;20.30;36.20;;;;;;5059873;28;20453;-85
2021/03/06 05:13:30;;;;;;;0.88;0.20;;;20.30;36.20;;;;;;5043074;28;20131;-85
2021/03/06 05:15:56;;;;;;;0.55;0.20;;;20.30;36.20;;;;;;5058479;28;20423;-85
2021/03/06 05:18:21;;;;;;;0.60;0.30;;;20.30;36.20;;;;;;5056852;28;20075;-84
2021/03/06 05:20:47;;;;;;;0.52;0.20;;;20.20;36.20;;;;;;5038666;28;20056;-85
2021/03/06 05:23:13;;;;;;;0.50;0.20;;;20.20;36.20;;;;;;5062589;28;20365;-85
2021/03/06 05:25:38;;;;;;;0.60;0.20;;;20.20;36.20;;;;;;5040237;28;20060;-85
2021/03/06 05:28:04;;;;;;;0.40;0.10;;;20.20;36.20;;;;;;5059347;28;20055;-85
2021/03/06 05:30:30;;;;;;;1.00;0.10;;;20.20;36.20;;;;;;5064617;28;20037;-86
2021/03/06 05:32:55;;;;;;;0.60;0.30;;;20.20;36.20;;;;;;5055176;28;20074;-84
2021/03/06 05:35:21;;;;;;;0.80;0.20;;;20.20;36.10;;;;;;5058918;28;20067;-84
2021/03/06 05:37:46;;;;;;;0.60;0.10;;;20.20;36.70;;;;;;5059174;28;20029;-85
2021/03/06 05:40:13;;;;;;;0.82;0.20;;;20.20;36.20;;;;;;5051789;28;20558;-85
2021/03/06 05:42:38;;;;;;;0.40;0.17;;;20.20;36.20;;;;;;5060072;28;20035;-85
2021/03/06 05:45:06;;;;;;;1.25;0.20;;;20.20;36.20;;;;;;5058534;28;20119;-85
2021/03/06 05:47:51;;;;;;;0.50;0.20;;;20.20;36.20;;;;;;5054051;28;20135;-85
2021/03/06 05:50:36;;;;;;;0.50;0.20;;;20.20;36.20;;;;;;5061176;28;20091;-83
2021/03/06 05:53:21;;;;;;;1.48;0.30;;;20.10;36.10;;;;;;5059917;28;20052;-84
2021/03/06 05:56:06;;;;;;;0.73;0.25;;;20.10;36.10;;;;;;5064010;28;20051;-84
2021/03/06 05:58:33;;;;;;;0.50;0.20;;;20.10;36.10;;;;;;5042232;28;20036;-84
2021/03/06 06:01:01;;;;;;;0.68;0.30;;;20.10;36.10;;;;;;5048047;28;20371;-85
2021/03/06 06:03:29;;;;;;;0.80;0.17;;;20.10;36.10;;;;;;5059807;28;20056;-84
2021/03/06 06:05:55;;;;;;;0.52;0.20;;;20.10;36.10;;;;;;5061214;28;20488;-83
2021/03/06 06:08:21;;;;;;;0.80;0.10;;;20.10;36.10;;;;;;5059527;28;20029;-84
2021/03/06 06:10:47;;;;;;;0.75;0.20;;;20.10;36.10;;;;;;5057830;28;20532;-83
2021/03/06 06:13:13;;;;;;;0.80;0.10;;;20.10;36.10;;;;;;5059701;28;20035;-84
2021/03/06 06:15:39;;;;;;;0.50;0.10;;;20.10;36.10;;;;;;5062352;28;20013;-84
2021/03/06 06:18:05;;;;;;;0.43;0.20;;;20.10;36.10;;;;;;5041763;28;20029;-85
2021/03/06 06:20:30;;;;;;;0.70;0.20;;;20.10;36.10;;;;;;5059842;28;20116;-85
2021/03/06 06:23:09;;;;;;;0.40;0.20;;;20.10;36.10;;;;;;5043215;28;20088;-84
2021/03/06 06:25:35;;;;;;;0.60;0.20;;;20.00;36.10;;;;;;5057269;28;20112;-84
2021/03/06 06:28:02;;;;;;;0.93;0.20;;;20.10;36.10;;;;;;5059455;28;20108;-84
2021/03/06 06:30:28;;;;;;;0.98;0.30;;;20.00;36.00;;;;;;5059231;28;20105;-84
2021/03/06 06:32:54;;;;;;;0.50;0.15;;;20.00;36.10;;;;;;5042135;28;20470;-84
2021/03/06 06:35:19;;;;;;;1.20;0.20;;;20.00;36.10;;;;;;5044003;28;20079;-85
2021/03/06 06:38:03;;;;;;;0.80;0.20;;;20.00;36.10;;;;;;5062447;28;20052;-85
2021/03/06 06:40:33;;;;;;;0.70;0.20;;;20.00;36.10;;;;;;5040449;28;20044;-84
2021/03/06 06:42:59;;;;;;;0.70;0.20;;;20.00;36.10;;;;;;5060731;28;20035;-85
2021/03/06 06:45:34;;;;;;;0.40;0.10;;;20.00;36.10;;;;;;5060861;28;20051;-84
2021/03/06 06:48:08;;;;;;;0.80;0.30;;;20.00;36.10;;;;;;5059689;28;20110;-85
2021/03/06 06:50:34;;;;;;;0.50;0.20;;;20.00;36.10;;;;;;5058181;28;20485;-85
2021/03/06 06:53:00;;;;;;;1.15;0.20;;;20.00;36.10;;;;;;5060049;28;20039;-84
2021/03/06 06:55:37;;;;;;;0.57;0.20;;;20.00;36.60;;;;;;5054535;28;20025;-84
2021/03/06 06:58:03;;;;;;;0.90;0.20;;;20.00;36.10;;;;;;5061640;28;20050;-83
2021/03/06 07:00:31;;;;;;;0.98;0.17;;;20.00;36.10;;;;;;5057164;28;20033;-84
2021/03/06 07:03:01;;;;;;;0.70;0.40;;;20.00;36.10;;;;;;5059865;28;20028;-83
2021/03/06 07:05:29;;;;;;;0.50;0.30;;;20.00;36.10;;;;;;5061791;28;20035;-85
2021/03/06 07:07:56;;;;;;;1.50;0.30;;;20.00;36.10;;;;;;5061091;28;20040;-85
2021/03/06 07:10:23;;;;;;;1.08;0.30;;;20.00;36.00;;;;;;5059293;28;20532;-84
2021/03/06 07:13:00;;;;;;;2.88;0.20;;;20.00;35.90;;;;;;5063299;28;20054;-83
2021/03/06 07:15:27;;;;;;;0.85;0.20;;;20.00;35.90;;;;;;5058540;28;20028;-84
2021/03/06 07:17:56;;;;;;;1.45;0.30;;;20.00;35.90;;;;;;5062999;28;20029;-83
2021/03/06 07:20:21;;;;;;;1.40;0.65;;;20.00;36.00;;;;;;5040686;28;20025;-84
2021/03/06 07:22:48;;;;;;;1.20;0.40;;;20.00;35.80;;;;;;5061636;28;20016;-85
2021/03/06 07:25:13;;;;;;;1.17;0.50;;;20.00;35.80;;;;;;5059048;28;20049;-83
2021/03/06 07:27:41;;;;;;;0.80;0.40;;;20.00;35.80;;;;;;5054113;28;20503;-84
2021/03/06 07:30:08;;;;;;;2.13;0.57;;;20.00;35.80;;;;;;5062938;28;20029;-85
2021/03/06 07:32:38;;;;;;;2.20;0.45;;;20.00;35.90;;;;;;5060681;28;20051;-83
2021/03/06 07:35:09;;;;;;;0.88;0.30;;;20.00;35.90;;;;;;5058754;28;20060;-84
2021/03/06 07:37:37;;;;;;;1.40;0.40;;;20.00;35.80;;;;;;5054784;28;20449;-84
2021/03/06 07:40:12;;;;;;;1.13;0.45;;;20.00;35.80;;;;;;5054261;28;20079;-84
2021/03/06 07:42:43;;;;;;;0.95;0.30;;;20.00;35.90;;;;;;5059071;28;20033;-84
2021/03/06 07:45:28;;;;;;;1.05;0.30;;;20.00;35.80;;;;;;5055179;28;20038;-84
2021/03/06 07:48:09;;;;;;;1.02;0.50;;;20.00;35.90;;;;;;5044863;28;20028;-84
2021/03/06 07:50:38;;;;;;;1.10;0.30;;;20.00;35.90;;;;;;5058666;28;20527;-85
2021/03/06 07:53:04;;;;;;;1.15;0.50;;;20.00;35.90;;;;;;5039046;28;20476;-84
2021/03/06 07:55:32;;;;;;;1.38;0.47;;;20.00;36.40;;;;;;5066106;28;20029;-84
2021/03/06 07:58:06;;;;;;;1.20;0.50;;;20.00;35.90;;;;;;5061232;28;20053;-83
2021/03/06 08:00:57;;;;;;;1.75;0.43;;;20.00;35.90;;;;;;5046477;28;20033;-84
2021/03/06 08:03:35;;;;;;;2.05;0.40;;;20.00;35.90;;;;;;5054256;28;20023;-85
2021/03/06 08:06:05;;;;;;;0.63;0.38;;;20.00;36.00;;;;;;5062086;28;20120;-84
2021/03/06 08:08:33;;;;;;;1.30;0.60;;;20.00;36.00;;;;;;5051024;28;21029;-84
2021/03/06 08:11:05;;;;;;;0.80;0.32;;;20.00;36.00;;;;;;5057849;28;20036;-85
2021/03/06 08:13:43;;;;;;;1.73;0.43;;;20.00;36.10;;;;;;5050729;28;20077;-85
2021/03/06 08:16:21;;;;;;;0.70;0.30;;;20.00;36.10;;;;;;5058806;28;20123;-84
2021/03/06 08:18:54;;;;;;;1.80;0.45;;;20.00;36.10;;;;;;5058866;28;20028;-84
2021/03/06 08:21:45;;;;;;;2.05;0.63;;;20.00;36.10;;;;;;5056198;28;20039;-84
2021/03/06 08:24:18;;;;;;;0.80;0.30;;;20.00;36.10;;;;;;5056900;28;20081;-84
2021/03/06 08:27:02;;;;;;;2.13;0.45;;;20.00;36.10;;;;;;5052798;28;20036;-84
2021/03/06 08:29:28;;;;;;;1.05;0.40;;;20.00;36.10;;;;;;5061801;28;20032;-84
2021/03/06 08:32:13;;;;;;;1.50;0.82;;;20.00;36.00;;;;;;5055081;28;20026;-84
2021/03/06 08:34:47;;;;;;;1.65;0.68;;;20.00;36.00;;;;;;5055032;28;20037;-83
2021/03/06 08:37:22;;;;;;;1.50;0.80;;;20.00;36.00;;;;;;5057241;28;20045;-84
2021/03/06 08:39:57;;;;;;;0.98;0.32;;;20.10;36.10;;;;;;5058839;28;20496;-84
2021/03/06 08:42:24;;;;;;;2.33;0.90;;;20.10;36.00;;;;;;5059822;28;20095;-85
2021/03/06 08:44:51;;;;;;;2.53;0.88;;;20.10;36.00;;;;;;5039273;28;20052;-82
2021/03/06 08:47:22;;;;;;;3.05;0.50;;;20.10;36.00;;;;;;5049582;28;20029;-84
2021/03/06 08:49:51;;;;;;;2.00;1.00;;;20.10;36.00;;;;;;5050716;28;20020;-84
2021/03/06 08:52:16;;;;;;;1.15;0.50;;;20.10;35.90;;;;;;5051219;28;20036;-84
2021/03/06 08:54:42;;;;;;;0.90;0.60;;;20.10;35.90;;;;;;5050586;28;20029;-85
2021/03/06 08:57:32;;;;;;;1.30;0.70;;;20.20;36.00;;;;;;5043679;28;20060;-85
2021/03/06 08:59:59;;;;;;;1.20;0.70;;;20.10;35.90;;;;;;5045050;28;20511;-83
2021/03/06 09:02:32;;;;;;;2.28;0.47;;;20.10;35.90;;;;;;5050052;28;20041;-83
2021/03/06 09:05:08;;;;;;;0.85;0.47;;;20.20;35.90;;;;;;5064924;28;20033;-83
2021/03/06 09:07:36;;;;;;;1.75;0.80;;;20.20;36.00;;;;;;5038006;28;20048;-83
2021/03/06 09:10:25;;;;;;;2.42;0.68;;;20.20;35.90;;;;;;5042103;28;20544;-82
2021/03/06 09:13:15;;;;;;;0.82;0.57;;;20.20;35.90;;;;;;5029424;28;20029;-82
2021/03/06 09:15:46;;;;;;;0.80;0.60;;;20.20;35.90;;;;;;5043446;28;20389;-83
2021/03/06 09:18:24;;;;;;;1.42;0.65;;;20.20;35.90;;;;;;5041644;28;20384;-83
2021/03/06 09:20:56;;;;;;;1.20;0.65;;;20.20;35.90;;;;;;5050441;28;20396;-85
2021/03/06 09:23:34;;;;;;;1.48;0.77;;;20.20;35.90;;;;;;5040723;28;20028;-83
2021/03/06 09:26:19;;;;;;;1.58;0.75;;;20.20;35.90;;;;;;5046486;28;20059;-83
2021/03/06 09:28:47;;;;;;;1.15;0.40;;;20.20;35.90;;;;;;5035127;28;20030;-84
2021/03/06 09:31:15;;;;;;;4.22;0.73;;;20.30;36.00;;;;;;5031955;28;20433;-83
2021/03/06 09:33:41;;;;;;;1.00;0.55;;;20.30;35.90;;;;;;5045571;28;20021;-83
2021/03/06 09:36:10;;;;;;;3.85;0.73;;;20.30;35.90;;;;;;5031931;28;20062;-83
2021/03/06 09:38:46;;;;;;;1.33;0.65;;;20.30;36.00;;;;;;5030848;28;20043;-83
2021/03/06 09:41:13;;;;;;;1.40;0.60;;;20.30;35.90;;;;;;5051977;28;20447;-83
2021/03/06 09:43:40;;;;;;;1.25;0.68;;;20.30;36.00;;;;;;5031762;28;20087;-83
2021/03/06 09:46:25;;;;;;;1.02;0.32;;;20.30;35.90;;;;;;5037006;28;20040;-84
2021/03/06 09:48:54;;;;;;;1.75;0.98;;;20.40;36.00;;;;;;5035060;28;20389;-83
2021/03/06 09:51:21;;;;;;;1.98;0.70;;;20.40;36.00;;;;;;5056971;28;20047;-83
2021/03/06 09:54:00;;;;;;;2.10;0.80;;;20.40;36.00;;;;;;5054767;28;20021;-83
2021/03/06 09:56:29;;;;;;;2.45;0.73;;;20.40;36.00;;;;;;5064609;28;20063;-83
2021/03/06 09:59:05;;;;;;;2.17;0.75;;;20.40;36.00;;;;;;5039930;28;20021;-84
2021/03/06 10:01:33;;;;;;;1.25;0.70;;;20.40;35.90;;;;;;5038506;28;20055;-84
2021/03/06 10:04:07;;;;;;;2.42;0.85;;;20.60;35.90;;;;;;5038686;28;20032;-83
2021/03/06 10:06:35;;;;;;;1.40;0.50;;;20.70;35.60;;;;;;5047082;28;20594;-82
2021/03/06 10:09:05;;;;;;;1.05;0.52;;;20.80;35.50;;;;;;5043275;28;20032;-82
2021/03/06 10:11:39;;;;;;;1.33;0.50;;;21.00;35.40;;;;;;5030500;28;20083;-83
2021/03/06 10:14:06;;;;;;;0.82;0.50;;;21.10;35.20;;;;;;5025099;28;20143;-83
2021/03/06 10:17:05;;;;;;;1.60;0.80;;;21.30;35.10;;;;;;5043569;28;20033;-83
2021/03/06 10:19:33;;;;;;;1.83;0.50;;;21.40;35.00;;;;;;5032673;28;20029;-83
2021/03/06 10:22:01;;;;;;;1.30;0.50;;;21.40;35.00;;;;;;5020581;28;20505;-83
2021/03/06 10:24:27;;;;;;;1.63;0.60;;;21.40;35.00;;;;;;5039543;28;20033;-83
2021/03/06 10:26:58;;;;;;;0.77;0.47;;;21.50;35.10;;;;;;5049836;28;20020;-83
2021/03/06 10:29:25;;;;;;;2.47;0.40;;;21.50;35.00;;;;;;5045116;28;20543;-87
2021/03/06 10:32:00;;;;;;;3.20;0.52;;;21.50;35.00;;;;;;5022051;28;20026;-83
2021/03/06 10:34:32;;;;;;;1.65;0.60;;;21.50;35.10;;;;;;5038485;28;20021;-85
2021/03/06 10:37:18;;;;;;;1.52;0.60;;;21.50;35.60;;;;;;5043220;28;20045;-84
2021/03/06 10:39:57;;;;;;;3.42;0.50;;;21.50;35.10;;;;;;5045159;28;20091;-84
2021/03/06 10:42:24;;;;;;;1.08;0.40;;;21.60;35.10;;;;;;5057552;28;20074;-83
2021/03/06 10:44:50;;;;;;;1.08;0.55;;;21.70;35.30;;;;;;5036685;28;20032;-84
2021/03/06 10:47:16;;;;;;;1.58;0.60;;;21.80;35.40;;;;;;5068416;28;20480;-82
2021/03/06 10:49:47;;;;;;;1.85;0.60;;;21.80;35.50;;;;;;5048536;28;20025;-83
2021/03/06 10:52:27;;;;;;;2.15;0.50;;;21.80;35.60;;;;;;5056704;28;20114;-82
2021/03/06 10:54:56;;;;;;;1.65;0.50;;;21.80;35.80;;;;;;5059408;28;20031;-83
2021/03/06 10:57:22;;;;;;;1.83;0.90;;;21.80;35.90;;;;;;5061795;28;20028;-84
2021/03/06 10:59:49;;;;;;;1.27;0.80;;;21.80;36.30;;;;;;5054959;28;20032;-83
2021/03/06 11:02:29;;;;;;;1.45;0.47;;;21.80;36.60;;;;;;5063732;28;20116;-82
2021/03/06 11:05:14;;;;;;;1.08;0.52;;;21.80;36.50;;;;;;5059192;28;20029;-82
2021/03/06 11:07:40;;;;;;;0.98;0.65;;;21.70;36.60;;;;;;5056640;28;20493;-82
2021/03/06 11:10:06;;;;;;;1.45;0.60;;;21.70;36.70;;;;;;5057323;28;20039;-82
2021/03/06 11:12:31;;;;;;;3.33;0.70;;;21.70;36.90;;;;;;5052102;28;20476;-83
2021/03/06 11:15:12;;;;;;;1.05;0.57;;;21.80;36.90;;;;;;5058290;28;20333;-83
2021/03/06 11:17:40;;;;;;;1.80;0.90;;;21.80;37.10;;;;;;5059365;28;20078;-83
2021/03/06 11:20:08;;;;;;;1.55;0.60;;;21.80;37.10;;;;;;5057735;28;20115;-86
2021/03/06 11:22:33;;;;;;;1.50;0.60;;;21.80;37.20;;;;;;5044061;28;20052;-82
2021/03/06 11:24:59;;;;;;;1.95;0.80;;;21.90;37.50;;;;;;5038691;28;20071;-86
2021/03/06 11:27:25;;;;;;;0.93;0.60;;;21.90;37.60;;;;;;5058725;28;20082;-86
2021/03/06 11:29:51;;;;;;;2.03;0.90;;;21.80;37.70;;;;;;5043239;28;20139;-82
2021/03/06 11:32:20;;;;;;;1.88;0.80;;;21.90;38.00;;;;;;5062443;28;20105;-82
2021/03/06 11:34:45;;;;;;;1.80;0.55;;;21.90;37.90;;;;;;5062349;28;20021;-83
2021/03/06 11:37:11;;;;;;;1.23;0.50;;;21.90;37.80;;;;;;5057034;28;20082;-82
2021/03/06 11:39:36;;;;;;;1.40;0.52;;;21.90;37.80;;;;;;5057009;28;20419;-84
2021/03/06 11:42:02;;;;;;;3.70;0.68;;;21.90;38.10;;;;;;5037485;28;20052;-85
2021/03/06 11:44:28;;;;;;;1.75;0.75;;;21.90;38.10;;;;;;5043627;28;20033;-82
2021/03/06 11:46:53;;;;;;;0.82;0.40;;;21.90;38.20;;;;;;5051483;28;20040;-82
2021/03/06 11:49:19;;;;;;;1.30;0.47;;;22.00;38.20;;;;;;5056360;28;20037;-83
2021/03/06 11:51:45;;;;;;;0.90;0.40;;;21.90;37.90;;;;;;5051301;28;20545;-83
2021/03/06 11:54:10;;;;;;;1.00;0.50;;;21.90;37.70;;;;;;5050197;28;20038;-83
2021/03/06 11:56:36;;;;;;;3.95;0.50;;;21.90;37.60;;;;;;5057611;28;20519;-84
2021/03/06 11:59:01;;;;;;;1.20;0.40;;;21.90;37.50;;;;;;5058967;28;20024;-83
2021/03/06 12:01:27;;;;;;;2.60;0.60;;;21.90;37.40;;;;;;5045823;28;20056;-83
2021/03/06 12:03:53;;;;;;;1.35;0.43;;;21.80;37.30;;;;;;5060763;28;20489;-82
2021/03/06 12:06:19;;;;;;;1.08;0.50;;;21.80;37.20;;;;;;5045180;28;20032;-83
2021/03/06 12:08:46;;;;;;;0.95;0.32;;;21.80;37.10;;;;;;5061917;28;20028;-84
2021/03/06 12:11:13;;;;;;;1.70;0.50;;;21.80;36.90;;;;;;5064481;28;20020;-84
2021/03/06 12:13:38;;;;;;;0.70;0.32;;;21.80;36.90;;;;;;5062699;28;20080;-84
2021/03/06 12:16:04;;;;;;;1.15;0.40;;;21.90;36.90;;;;;;5065357;28;20119;-83
2021/03/06 12:18:30;;;;;;;2.40;0.30;;;21.90;36.90;;;;;;5059341;28;20029;-83
2021/03/06 12:20:55;;;;;;;1.17;0.47;;;21.80;36.80;;;;;;5063815;28;20028;-83
2021/03/06 12:23:21;;;;;;;2.25;0.47;;;21.80;36.70;;;;;;5061498;28;20331;-84
2021/03/06 12:25:47;;;;;;;0.93;0.30;;;21.90;36.70;;;;;;5059261;28;20033;-83
2021/03/06 12:28:12;;;;;;;2.00;0.40;;;21.80;36.70;;;;;;5044333;28;20037;-83
2021/03/06 12:30:38;;;;;;;0.90;0.47;;;21.90;36.70;;;;;;5043159;28;20043;-83
2021/03/06 12:33:03;;;;;;;1.20;0.40;;;21.90;36.60;;;;;;5047695;28;20023;-84
2021/03/06 12:35:29;;;;;;;3.22;0.50;;;21.80;36.50;;;;;;5043412;28;20222;-82
2021/03/06 12:37:55;;;;;;;1.77;0.43;;;21.80;36.50;;;;;;5044824;28;20025;-82
2021/03/06 12:40:20;;;;;;;0.95;0.30;;;21.90;36.50;;;;;;5046274;28;20032;-83
2021/03/06 12:42:46;;;;;;;1.00;0.52;;;21.90;36.50;;;;;;5062804;28;20102;-83
2021/03/06 12:45:13;;;;;;;1.30;0.40;;;21.80;36.40;;;;;;5062028;28;20037;-83
2021/03/06 12:47:39;;;;;;;0.75;0.30;;;21.80;36.30;;;;;;5061586;28;20039;-84
2021/03/06 12:50:06;;;;;;;0.73;0.30;;;21.80;36.30;;;;;;5056817;28;20021;-83
2021/03/06 12:52:32;;;;;;;1.55;0.40;;;21.90;36.90;;;;;;5063410;28;20017;-82
2021/03/06 12:54:58;;;;;;;0.75;0.20;;;21.80;36.20;;;;;;5060943;28;20031;-84
2021/03/06 12:57:23;;;;;;;0.70;0.30;;;21.90;36.30;;;;;;5039242;28;20315;-83
2021/03/06 12:59:49;;;;;;;0.60;0.30;;;21.80;36.20;;;;;;5043696;28;20488;-83